createdAt,value
2019-03-08T00:01:40.925Z,59.96
2019-03-08T00:04:09.817Z,60.65
2019-03-08T00:06:38.412Z,61.86
2019-03-08T00:09:09.021Z,61.35
2019-03-08T00:11:37.503Z,60.88
2019-03-08T00:14:06.520Z,62.26
2019-03-08T00:16:35.100Z,59.90
2019-03-08T00:19:03.919Z,59.99
2019-03-08T00:21:32.861Z,60.52
2019-03-08T00:24:01.540Z,61.96
2019-03-08T00:26:30.212Z,61.88
2019-03-08T00:28:59.034Z,62.81
2019-03-08T00:31:27.758Z,62.17
2019-03-08T00:33:56.347Z,60.61
2019-03-08T00:36:25.032Z,63.59
2019-03-08T00:38:53.653Z,63.63
2019-03-08T00:41:22.518Z,63.15
2019-03-08T00:43:51.102Z,63.30
2019-03-08T00:46:20.014Z,62.63
2019-03-08T00:48:48.614Z,64.68
2019-03-08T00:51:17.284Z,63.57
2019-03-08T00:53:45.860Z,65.18
2019-03-08T00:56:14.470Z,65.26
2019-03-08T00:58:43.339Z,66.04
2019-03-08T01:01:12.273Z,66.96
2019-03-08T01:03:40.896Z,66.81
2019-03-08T01:06:09.799Z,66.08
2019-03-08T01:08:38.365Z,65.79
2019-03-08T01:11:07.279Z,66.09
2019-03-08T01:13:35.938Z,67.21
2019-03-08T01:16:04.870Z,65.74
2019-03-08T01:18:33.487Z,67.31
2019-03-08T01:21:02.332Z,67.64
2019-03-08T01:23:30.945Z,64.95
2019-03-08T01:25:59.620Z,65.47
2019-03-08T01:28:28.435Z,65.54
2019-03-08T01:30:57.192Z,64.99
2019-03-08T01:33:26.205Z,64.38
2019-03-08T01:35:54.922Z,65.03
2019-03-08T01:38:23.713Z,64.03
2019-03-08T01:40:52.288Z,65.32
2019-03-08T01:43:20.875Z,66.33
2019-03-08T01:45:49.521Z,65.27
2019-03-08T01:48:18.194Z,66.32
2019-03-08T01:50:46.810Z,65.91
2019-03-08T01:53:15.387Z,67.11
2019-03-08T01:55:44.523Z,65.10
2019-03-08T01:58:13.263Z,66.79
2019-03-08T02:00:42.163Z,66.51
2019-03-08T02:03:10.986Z,67.12
2019-03-08T02:05:39.612Z,67.47
2019-03-08T02:08:08.215Z,67.76
2019-03-08T02:10:37.228Z,68.34
2019-03-08T02:13:06.402Z,69.73
2019-03-08T02:15:35.186Z,67.81
2019-03-08T02:18:04.459Z,67.28
2019-03-08T02:20:33.386Z,67.94
2019-03-08T02:23:02.005Z,68.92
2019-03-08T02:25:30.884Z,69.12
2019-03-08T02:27:59.460Z,70.25
2019-03-08T02:30:28.138Z,69.81
2019-03-08T02:32:56.820Z,71.63
2019-03-08T02:35:25.416Z,70.14
2019-03-08T02:37:54.143Z,69.45
2019-03-08T02:40:31.090Z,70.04
2019-03-08T02:43:00.453Z,66.88
2019-03-08T02:45:29.334Z,70.44
2019-03-08T02:47:57.946Z,69.42
2019-03-08T02:50:26.534Z,70.72
2019-03-08T02:52:55.375Z,72.02
2019-03-08T02:55:24.015Z,70.10
2019-03-08T02:57:53.031Z,69.63
2019-03-08T03:00:21.656Z,69.67
2019-03-08T03:02:50.322Z,71.49
2019-03-08T03:05:19.278Z,72.03
2019-03-08T03:07:48.107Z,70.26
2019-03-08T03:10:16.890Z,70.37
2019-03-08T03:12:45.472Z,71.57
2019-03-08T03:15:14.300Z,68.94
2019-03-08T03:17:42.897Z,71.05
2019-03-08T03:20:11.674Z,70.41
2019-03-08T03:22:40.580Z,70.95
2019-03-08T03:25:09.368Z,68.67
2019-03-08T03:27:38.376Z,68.37
2019-03-08T03:30:07.735Z,69.10
2019-03-08T03:32:36.386Z,71.05
2019-03-08T03:35:05.441Z,72.95
2019-03-08T03:37:34.287Z,73.37
2019-03-08T03:40:03.401Z,74.36
2019-03-08T03:42:32.269Z,74.79
2019-03-08T03:45:00.976Z,72.23
2019-03-08T03:47:29.633Z,70.40
2019-03-08T03:49:58.498Z,73.48
2019-03-08T03:52:27.378Z,73.01
2019-03-08T03:54:56.626Z,72.33
2019-03-08T03:57:25.472Z,72.81
2019-03-08T03:59:54.099Z,72.57
2019-03-08T04:02:22.929Z,72.99
2019-03-08T04:04:51.782Z,75.20
2019-03-08T04:07:20.364Z,73.27
2019-03-08T04:09:49.392Z,75.47
2019-03-08T04:12:17.976Z,75.74
2019-03-08T04:14:46.607Z,75.50
2019-03-08T04:17:15.253Z,76.50
2019-03-08T04:19:43.876Z,75.28
2019-03-08T04:22:12.743Z,75.72
2019-03-08T04:24:41.538Z,76.94
2019-03-08T04:27:10.119Z,76.10
2019-03-08T04:29:38.939Z,76.25
2019-03-08T04:32:07.799Z,76.25
2019-03-08T04:34:36.689Z,76.55
2019-03-08T04:37:05.545Z,77.81
2019-03-08T04:39:34.123Z,78.08
2019-03-08T04:42:02.740Z,77.57
2019-03-08T04:44:31.799Z,78.88
2019-03-08T04:47:00.389Z,77.10
2019-03-08T04:49:28.966Z,76.85
2019-03-08T04:51:57.559Z,76.68
2019-03-08T04:54:26.140Z,77.11
2019-03-08T04:56:54.744Z,78.06
2019-03-08T04:59:23.552Z,75.84
2019-03-08T05:01:52.186Z,75.16
2019-03-08T05:04:20.769Z,73.42
2019-03-08T05:06:49.376Z,73.45
2019-03-08T05:09:17.978Z,73.74
2019-03-08T05:11:46.635Z,72.25
2019-03-08T05:14:15.258Z,70.53
2019-03-08T05:16:43.870Z,71.52
2019-03-08T05:19:12.527Z,70.80
2019-03-08T05:21:41.206Z,72.20
2019-03-08T05:24:10.330Z,71.40
2019-03-08T05:26:38.937Z,70.80
2019-03-08T05:29:07.772Z,72.82
2019-03-08T05:31:36.378Z,73.86
2019-03-08T05:34:05.085Z,72.80
2019-03-08T05:36:33.951Z,71.26
2019-03-08T05:39:02.587Z,69.26
2019-03-08T05:41:31.192Z,69.92
2019-03-08T05:43:59.787Z,70.03
2019-03-08T05:46:28.606Z,71.59
2019-03-08T05:48:57.504Z,72.08
2019-03-08T05:51:26.082Z,71.06
2019-03-08T05:53:55.205Z,69.90
2019-03-08T05:56:23.876Z,70.59
2019-03-08T05:58:52.466Z,68.03
2019-03-08T06:01:21.286Z,68.60
2019-03-08T06:03:51.433Z,72.44
2019-03-08T06:06:20.098Z,71.53
2019-03-08T06:08:48.859Z,69.32
2019-03-08T06:11:17.825Z,68.64
2019-03-08T06:13:46.433Z,68.28
2019-03-08T06:16:15.015Z,70.95
2019-03-08T06:18:43.695Z,67.90
2019-03-08T06:21:12.352Z,69.02
2019-03-08T06:23:41.236Z,71.15
2019-03-08T06:26:09.846Z,69.71
2019-03-08T06:28:38.447Z,70.47
2019-03-08T06:31:07.075Z,71.92
2019-03-08T06:33:35.675Z,72.77
2019-03-08T06:36:04.467Z,71.29
2019-03-08T06:38:33.392Z,72.77
2019-03-08T06:41:02.364Z,72.63
2019-03-08T06:43:32.049Z,73.68
2019-03-08T06:46:00.724Z,72.14
2019-03-08T06:48:29.431Z,73.65
2019-03-08T06:50:58.061Z,72.40
2019-03-08T06:53:27.329Z,73.08
2019-03-08T06:55:56.015Z,72.24
2019-03-08T06:58:36.310Z,73.62
2019-03-08T07:01:11.147Z,73.82
2019-03-08T07:03:39.753Z,71.91
2019-03-08T07:06:08.527Z,74.94
2019-03-08T07:08:37.095Z,73.59
2019-03-08T07:11:05.758Z,72.77
2019-03-08T07:13:34.346Z,71.35
2019-03-08T07:16:02.979Z,70.85
2019-03-08T07:18:31.558Z,70.56
2019-03-08T07:21:04.982Z,69.72
2019-03-08T07:23:40.585Z,69.95
2019-03-08T07:26:17.340Z,70.29
2019-03-08T07:29:03.899Z,68.82
2019-03-08T07:31:57.683Z,69.81
2019-03-08T07:34:32.052Z,69.07
2019-03-08T07:37:20.123Z,67.74
2019-03-08T07:40:15.776Z,68.31
2019-03-08T07:43:02.143Z,67.87
2019-03-08T07:45:48.745Z,71.66
2019-03-08T07:48:39.210Z,71.18
2019-03-08T07:51:35.970Z,68.83
2019-03-08T07:54:29.613Z,68.75
2019-03-08T07:57:24.446Z,65.62
2019-03-08T08:00:07.562Z,67.63
2019-03-08T08:02:46.248Z,68.63
2019-03-08T08:05:22.462Z,67.60
2019-03-08T08:08:00.830Z,70.98
2019-03-08T08:10:39.897Z,67.93
2019-03-08T08:13:26.400Z,68.81
2019-03-08T08:16:06.547Z,67.03
2019-03-08T08:18:42.157Z,66.04
2019-03-08T08:21:19.341Z,68.49
2019-03-08T08:24:07.429Z,67.73
2019-03-08T08:26:53.807Z,67.40
2019-03-08T08:29:50.454Z,65.54
2019-03-08T08:32:36.559Z,66.85
2019-03-08T08:35:13.662Z,67.50
2019-03-08T08:37:53.219Z,67.55
2019-03-08T08:40:32.930Z,67.58
2019-03-08T08:43:25.365Z,66.99
2019-03-08T08:46:07.880Z,68.43
2019-03-08T08:49:01.669Z,67.13
2019-03-08T08:51:49.306Z,64.95
2019-03-08T08:54:36.897Z,65.75
2019-03-08T08:57:25.840Z,68.53
2019-03-08T09:00:01.642Z,68.50
2019-03-08T09:02:58.182Z,64.20
2019-03-08T09:05:34.584Z,66.61
2019-03-08T09:08:23.655Z,67.32
2019-03-08T09:11:20.660Z,65.33
2019-03-08T09:13:56.308Z,65.20
2019-03-08T09:16:42.026Z,62.46
2019-03-08T09:19:18.038Z,66.58
2019-03-08T09:21:55.603Z,65.88
2019-03-08T09:24:29.967Z,67.71
2019-03-08T09:27:13.040Z,66.96
2019-03-08T09:29:56.288Z,66.12
2019-03-08T09:32:47.063Z,64.11
2019-03-08T09:35:26.441Z,64.95
2019-03-08T09:38:03.341Z,66.61
2019-03-08T09:40:54.135Z,66.95
2019-03-08T09:43:44.913Z,66.11
2019-03-08T09:46:38.460Z,61.94
2019-03-08T09:49:17.773Z,60.45
2019-03-08T09:51:53.460Z,61.68
2019-03-08T09:54:28.987Z,62.65
2019-03-08T09:57:16.625Z,63.10
2019-03-08T09:59:56.575Z,62.99
2019-03-08T10:02:48.406Z,64.71
2019-03-08T10:05:24.654Z,62.40
2019-03-08T10:08:10.869Z,63.85
2019-03-08T10:10:47.123Z,64.76
2019-03-08T10:13:31.747Z,63.08
2019-03-08T10:16:04.260Z,63.21
2019-03-08T10:18:45.829Z,59.40
2019-03-08T10:21:37.509Z,58.81
2019-03-08T10:24:21.029Z,59.22
2019-03-08T10:27:07.141Z,59.14
2019-03-08T10:30:00.809Z,59.15
2019-03-08T10:32:51.495Z,54.14
2019-03-08T10:35:33.790Z,50.46
2019-03-08T10:38:12.623Z,50.46
2019-03-08T10:40:48.929Z,48.98
2019-03-08T10:43:31.359Z,51.18
2019-03-08T10:46:31.038Z,53.50
2019-03-08T10:49:12.031Z,54.74
2019-03-08T10:52:01.488Z,54.32
2019-03-08T10:54:36.865Z,57.73
2019-03-08T10:57:15.359Z,56.87
2019-03-08T10:59:52.587Z,57.30
2019-03-08T11:02:33.913Z,57.30
2019-03-08T11:05:08.970Z,56.18
2019-03-08T11:07:44.075Z,58.63
2019-03-08T11:10:30.542Z,57.39
2019-03-08T11:13:29.080Z,57.05
2019-03-08T11:16:15.126Z,56.94
2019-03-08T11:19:09.036Z,54.46
2019-03-08T11:21:59.098Z,57.05
2019-03-08T11:24:52.932Z,55.59
2019-03-08T11:27:32.004Z,55.22
2019-03-08T11:30:25.986Z,55.22
2019-03-08T11:33:25.926Z,54.65
2019-03-08T11:36:29.110Z,54.65
2019-03-08T11:39:12.210Z,55.86
2019-03-08T11:41:50.284Z,56.30
2019-03-08T11:44:30.344Z,56.32
2019-03-08T11:47:23.732Z,57.83
2019-03-08T11:50:30.082Z,59.14
2019-03-08T11:53:23.321Z,57.82
2019-03-08T11:55:58.479Z,57.55
2019-03-08T11:58:38.477Z,56.41
2019-03-08T12:01:24.814Z,57.81
2019-03-08T12:04:11.515Z,56.03
2019-03-08T12:06:46.752Z,55.94
2019-03-08T12:09:47.005Z,55.52
2019-03-08T12:12:40.978Z,53.56
2019-03-08T12:15:28.790Z,54.01
2019-03-08T12:18:15.169Z,54.01
2019-03-08T12:21:06.044Z,57.27
2019-03-08T12:23:44.080Z,59.71
2019-03-08T12:26:30.368Z,59.11
2019-03-08T12:29:21.018Z,58.16
2019-03-08T12:32:08.370Z,53.24
2019-03-08T12:34:43.498Z,53.24
2019-03-08T12:37:26.529Z,50.22
2019-03-08T12:40:00.655Z,46.08
2019-03-08T12:42:55.442Z,49.68
2019-03-08T12:45:39.240Z,53.12
2019-03-08T12:48:23.602Z,44.96
2019-03-08T12:51:09.974Z,44.96
2019-03-08T12:53:56.711Z,47.19
2019-03-08T12:56:43.044Z,47.86
2019-03-08T12:59:35.031Z,51.71
2019-03-08T13:02:15.400Z,54.86
2019-03-08T13:04:55.901Z,52.98
2019-03-08T13:07:41.375Z,53.25
2019-03-08T13:10:13.094Z,52.18
2019-03-08T13:12:42.088Z,51.58
2019-03-08T13:15:12.838Z,55.35
2019-03-08T13:17:41.461Z,54.98
2019-03-08T13:20:15.495Z,54.70
2019-03-08T13:22:44.321Z,56.17
2019-03-08T13:25:13.316Z,59.33
2019-03-08T13:27:43.283Z,57.89
2019-03-08T13:30:15.098Z,59.21
2019-03-08T13:32:44.168Z,59.23
2019-03-08T13:35:13.229Z,59.07
2019-03-08T13:37:42.053Z,61.36
2019-03-08T13:40:11.950Z,62.25
2019-03-08T13:42:40.536Z,60.06
2019-03-08T13:45:11.261Z,60.34
2019-03-08T13:47:39.838Z,59.08
2019-03-08T13:50:09.432Z,60.56
2019-03-08T13:52:38.293Z,61.36
2019-03-08T13:55:09.747Z,59.87
2019-03-08T13:57:38.704Z,63.00
2019-03-08T14:00:09.674Z,60.47
2019-03-08T14:02:38.391Z,61.30
2019-03-08T14:05:07.481Z,59.86
2019-03-08T14:07:36.267Z,59.95
2019-03-08T14:10:05.944Z,61.18
2019-03-08T14:12:34.675Z,58.81
2019-03-08T14:15:03.633Z,58.06
2019-03-08T14:17:32.314Z,57.18
2019-03-08T14:20:00.908Z,57.75
2019-03-08T14:22:30.688Z,57.21
2019-03-08T14:24:59.306Z,58.67
2019-03-08T14:27:27.917Z,55.52
2019-03-08T14:29:59.112Z,55.53
2019-03-08T14:32:27.315Z,56.73
2019-03-08T14:34:56.256Z,56.03
2019-03-08T14:37:25.133Z,55.89
2019-03-08T14:39:54.062Z,53.41
2019-03-08T14:42:40.430Z,53.11
2019-03-08T14:45:21.052Z,52.72
2019-03-08T14:47:52.131Z,53.47
2019-03-08T14:50:20.711Z,53.21
2019-03-08T14:52:49.439Z,52.06
2019-03-08T14:55:18.925Z,50.42
2019-03-08T14:57:48.476Z,50.19
2019-03-08T15:00:19.300Z,50.17
2019-03-08T15:02:48.683Z,47.09
2019-03-08T15:05:19.081Z,50.12
2019-03-08T15:07:47.665Z,49.26
2019-03-08T15:10:17.574Z,47.89
2019-03-08T15:12:48.976Z,48.13
2019-03-08T15:15:17.530Z,47.33
2019-03-08T15:17:49.580Z,48.41
2019-03-08T15:20:17.482Z,48.77
2019-03-08T15:22:46.346Z,50.60
2019-03-08T15:25:15.256Z,50.40
2019-03-08T15:27:43.879Z,49.68
2019-03-08T15:30:14.218Z,51.42
2019-03-08T15:32:42.922Z,51.57
2019-03-08T15:35:12.223Z,52.92
2019-03-08T15:37:44.130Z,53.08
2019-03-08T15:40:13.521Z,51.68
2019-03-08T15:42:42.401Z,52.24
2019-03-08T15:45:11.381Z,52.94
2019-03-08T15:47:40.591Z,52.62
2019-03-08T15:50:11.549Z,51.34
2019-03-08T15:52:40.387Z,51.06
2019-03-08T15:55:09.040Z,52.03
2019-03-08T15:57:38.312Z,51.63
2019-03-08T16:00:10.419Z,52.06
2019-03-08T16:02:39.420Z,51.89
2019-03-08T16:05:08.557Z,53.28
2019-03-08T16:07:37.195Z,52.60
2019-03-08T16:10:07.672Z,52.99
2019-03-08T16:12:36.294Z,53.24
2019-03-08T16:15:05.137Z,52.05
2019-03-08T16:17:34.037Z,53.72
2019-03-08T16:20:03.855Z,52.95
2019-03-08T16:22:32.857Z,53.73
2019-03-08T16:25:01.470Z,54.96
2019-03-08T16:27:30.260Z,54.35
2019-03-08T16:30:03.082Z,55.89
2019-03-08T16:33:03.872Z,56.40
2019-03-08T16:35:41.079Z,56.24
2019-03-08T16:38:14.472Z,56.68
2019-03-08T16:40:50.816Z,55.82
2019-03-08T16:43:34.598Z,53.89
2019-03-08T16:46:21.372Z,55.06
2019-03-08T16:48:58.178Z,54.92
2019-03-08T16:51:40.726Z,55.87
2019-03-08T16:54:46.468Z,55.51
2019-03-08T16:57:21.983Z,55.41
2019-03-08T17:00:27.533Z,54.89
2019-03-08T17:03:13.912Z,54.53
2019-03-08T17:05:55.403Z,53.80
2019-03-08T17:08:41.692Z,54.28
2019-03-08T17:11:27.159Z,53.24
2019-03-08T17:14:14.899Z,52.96
2019-03-08T17:17:02.169Z,52.29
2019-03-08T17:19:40.302Z,52.58
2019-03-08T17:22:21.252Z,54.19
2019-03-08T17:25:07.378Z,52.79
2019-03-08T17:27:55.064Z,52.85
2019-03-08T17:30:51.951Z,51.48
2019-03-08T17:33:39.595Z,50.35
2019-03-08T17:36:25.991Z,51.07
2019-03-08T17:39:17.225Z,50.48
2019-03-08T17:41:55.878Z,52.01
2019-03-08T17:44:46.187Z,51.79
2019-03-08T17:47:28.269Z,51.63
2019-03-08T17:50:15.921Z,53.12
2019-03-08T17:53:12.945Z,51.84
2019-03-08T17:55:49.206Z,50.17
2019-03-08T17:58:32.784Z,47.62
2019-03-08T18:01:18.925Z,47.35
2019-03-08T18:04:09.586Z,44.82
2019-03-08T18:06:54.977Z,45.42
2019-03-08T18:09:39.015Z,45.76
2019-03-08T18:12:25.135Z,45.81
2019-03-08T18:15:07.858Z,47.12
2019-03-08T18:17:53.698Z,47.77
2019-03-08T18:20:50.710Z,49.56
2019-03-08T18:23:32.267Z,49.05
2019-03-08T18:26:09.155Z,46.65
2019-03-08T18:28:56.925Z,49.21
2019-03-08T18:31:47.116Z,48.62
2019-03-08T18:34:35.690Z,49.34
2019-03-08T18:37:26.258Z,47.07
2019-03-08T18:40:12.790Z,48.02
2019-03-08T18:42:48.698Z,47.31
2019-03-08T18:45:33.495Z,48.88
2019-03-08T18:48:21.145Z,49.07
2019-03-08T18:51:17.943Z,51.68
2019-03-08T18:54:04.899Z,35.90
2019-03-08T18:56:49.065Z,33.82
2019-03-08T18:59:24.328Z,32.94
2019-03-08T19:02:30.283Z,37.24
2019-03-08T19:05:17.290Z,38.38
2019-03-08T19:07:56.543Z,41.87
2019-03-08T19:10:38.535Z,43.99
2019-03-08T19:13:24.975Z,43.63
2019-03-08T19:15:59.508Z,45.83
2019-03-08T19:18:44.361Z,44.31
2019-03-08T19:21:37.825Z,45.13
2019-03-08T19:24:14.737Z,44.12
2019-03-08T19:27:14.665Z,45.00
2019-03-08T19:30:00.981Z,45.36
2019-03-08T19:33:00.917Z,43.79
2019-03-08T19:35:47.224Z,43.21
2019-03-08T19:38:24.787Z,45.53
2019-03-08T19:41:17.655Z,48.21
2019-03-08T19:44:11.571Z,46.27
2019-03-08T19:46:58.017Z,44.84
2019-03-08T19:49:32.656Z,43.96
2019-03-08T19:52:19.444Z,45.42
2019-03-08T19:55:04.306Z,45.85
2019-03-08T19:57:40.998Z,45.71
2019-03-08T20:00:22.374Z,47.14
2019-03-08T20:03:05.277Z,47.16
2019-03-08T20:05:39.786Z,47.57
2019-03-08T20:08:22.800Z,48.95
2019-03-08T20:10:59.139Z,50.11
2019-03-08T20:13:45.535Z,48.57
2019-03-08T20:16:25.867Z,49.39
2019-03-08T20:19:25.839Z,50.86
2019-03-08T20:22:13.719Z,51.00
2019-03-08T20:25:00.566Z,50.69
2019-03-08T20:27:38.148Z,51.40
2019-03-08T20:30:18.773Z,47.44
2019-03-08T20:33:08.195Z,51.57
2019-03-08T20:35:47.777Z,52.43
2019-03-08T20:38:33.937Z,54.98
2019-03-08T20:41:19.169Z,55.16
2019-03-08T20:44:13.047Z,55.39
2019-03-08T20:46:48.780Z,53.09
2019-03-08T20:49:17.425Z,54.73
2019-03-08T20:51:46.025Z,53.32
2019-03-08T20:54:14.744Z,53.41
2019-03-08T20:56:43.579Z,46.75
2019-03-08T20:59:12.216Z,44.75
2019-03-08T21:01:40.832Z,45.51
2019-03-08T21:04:09.430Z,47.09
2019-03-08T21:06:38.423Z,41.01
2019-03-08T21:09:07.911Z,45.45
2019-03-08T21:11:36.805Z,49.41
2019-03-08T21:14:05.408Z,48.95
2019-03-08T21:16:34.298Z,47.86
2019-03-08T21:19:02.922Z,50.17
2019-03-08T21:21:31.994Z,51.95
2019-03-08T21:24:00.589Z,50.76
2019-03-08T21:26:29.748Z,47.46
2019-03-08T21:28:58.667Z,49.49
2019-03-08T21:31:27.263Z,48.14
2019-03-08T21:33:56.410Z,44.40
2019-03-08T21:36:25.080Z,45.66
2019-03-08T21:38:54.165Z,45.55
2019-03-08T21:41:22.762Z,48.95
2019-03-08T21:43:51.354Z,47.46
2019-03-08T21:46:20.323Z,46.60
2019-03-08T21:48:49.167Z,49.10
2019-03-08T21:51:17.853Z,48.39
2019-03-08T21:53:46.473Z,49.75
2019-03-08T21:56:15.580Z,50.20
2019-03-08T21:58:44.206Z,47.38
2019-03-08T22:01:12.834Z,48.20
2019-03-08T22:03:43.371Z,49.09
2019-03-08T22:06:12.515Z,48.27
2019-03-08T22:08:50.840Z,45.17
2019-03-08T22:11:32.537Z,49.16
2019-03-08T22:14:01.423Z,46.80
2019-03-08T22:16:30.059Z,47.40
2019-03-08T22:18:58.879Z,44.87
2019-03-08T22:21:27.733Z,46.11
2019-03-08T22:23:56.377Z,47.82
2019-03-08T22:26:25.285Z,44.88
2019-03-08T22:28:53.904Z,49.75
2019-03-08T22:31:22.561Z,44.58
2019-03-08T22:33:51.362Z,46.47
2019-03-08T22:36:20.344Z,47.99
2019-03-08T22:38:48.942Z,46.70
2019-03-08T22:41:17.776Z,49.87
2019-03-08T22:43:46.415Z,47.68
2019-03-08T22:46:15.046Z,48.96
2019-03-08T22:51:04.261Z,49.29
2019-03-08T22:53:33.275Z,46.94
2019-03-08T22:56:02.451Z,48.56
2019-03-08T22:58:31.079Z,44.24
2019-03-08T23:01:06.449Z,46.39
2019-03-08T23:03:35.045Z,52.72
2019-03-08T23:06:03.666Z,51.08
2019-03-08T23:08:32.700Z,47.27
2019-03-08T23:11:01.580Z,48.87
2019-03-08T23:13:30.392Z,47.97
2019-03-08T23:15:59.308Z,48.38
2019-03-08T23:18:27.984Z,46.43
2019-03-08T23:20:56.837Z,44.65
2019-03-08T23:23:25.591Z,46.41
2019-03-08T23:25:54.204Z,46.07
2019-03-08T23:28:40.856Z,47.15
2019-03-08T23:31:19.015Z,47.42
2019-03-08T23:33:47.644Z,48.38
2019-03-08T23:36:17.192Z,44.85
2019-03-08T23:38:45.770Z,44.22
2019-03-08T23:41:14.740Z,46.93
2019-03-08T23:43:43.684Z,43.60
2019-03-08T23:46:12.305Z,43.31
2019-03-08T23:48:40.963Z,44.19
2019-03-08T23:51:09.808Z,44.08
2019-03-08T23:53:38.412Z,45.93
2019-03-08T23:56:07.020Z,44.72
2019-03-08T23:58:35.894Z,46.02
